createdAt,value
2018-12-31T00:00:10.368Z,0
2018-12-31T00:00:50.818Z,0
2018-12-31T00:01:31.278Z,0
2018-12-31T00:02:11.682Z,0
2018-12-31T00:02:52.064Z,0
2018-12-31T00:03:37.847Z,0
2018-12-31T00:04:19.008Z,0
2018-12-31T00:05:01.278Z,0
2018-12-31T00:05:41.657Z,0
2018-12-31T00:06:22.079Z,0
2018-12-31T00:07:02.538Z,0
2018-12-31T00:07:43.050Z,0
2018-12-31T00:08:23.639Z,0
2018-12-31T00:09:03.977Z,0
2018-12-31T00:09:44.403Z,0
2018-12-31T00:10:27.396Z,0
2018-12-31T00:11:09.518Z,0
2018-12-31T00:11:49.846Z,0
2018-12-31T00:12:30.257Z,0
2018-12-31T00:13:10.627Z,0
2018-12-31T00:13:51.037Z,0
2018-12-31T00:14:33.271Z,0
2018-12-31T00:15:13.673Z,0
2018-12-31T00:15:54.138Z,0
2018-12-31T00:16:35.399Z,0
2018-12-31T00:17:15.839Z,0
2018-12-31T00:17:56.501Z,0
2018-12-31T00:18:36.909Z,0
2018-12-31T00:19:18.819Z,0
2018-12-31T00:20:00.504Z,0
2018-12-31T00:20:41.821Z,0
2018-12-31T00:21:22.444Z,0
2018-12-31T00:22:02.894Z,0
2018-12-31T00:22:43.264Z,0
2018-12-31T00:25:02.050Z,0
2018-12-31T00:25:42.384Z,0
2018-12-31T00:26:22.794Z,0
2018-12-31T00:27:04.291Z,0
2018-12-31T00:27:44.605Z,0
2018-12-31T00:28:25.511Z,0
2018-12-31T00:29:05.901Z,0
2018-12-31T00:29:46.275Z,0
2018-12-31T00:30:27.085Z,0
2018-12-31T00:31:08.303Z,0
2018-12-31T00:31:48.895Z,0
2018-12-31T00:32:30.292Z,0
2018-12-31T00:33:10.702Z,0
2018-12-31T00:33:51.077Z,0
2018-12-31T00:34:31.568Z,0
2018-12-31T00:35:12.173Z,0
2018-12-31T00:35:52.625Z,0
2018-12-31T00:36:34.504Z,0
2018-12-31T00:37:16.363Z,0
2018-12-31T00:37:58.633Z,0
2018-12-31T00:38:38.918Z,0
2018-12-31T00:39:19.325Z,0
2018-12-31T00:40:03.232Z,0
2018-12-31T08:16:40.144Z,28
2018-12-31T08:17:18.771Z,32
2018-12-31T08:17:59.184Z,32
2018-12-31T08:18:39.605Z,32
2018-12-31T08:19:20.005Z,32
2018-12-31T08:20:00.414Z,32
2018-12-31T08:20:40.830Z,32
2018-12-31T08:21:21.238Z,32
2018-12-31T08:22:01.664Z,32
2018-12-31T08:22:42.117Z,36
2018-12-31T08:23:22.511Z,36
2018-12-31T08:24:02.923Z,36
2018-12-31T08:24:43.272Z,40
2018-12-31T08:25:24.341Z,40
2018-12-31T08:26:06.288Z,44
2018-12-31T08:26:46.670Z,44
2018-12-31T08:27:27.005Z,44
2018-12-31T08:28:07.413Z,52
2018-12-31T08:28:47.850Z,56
2018-12-31T08:29:28.366Z,56
2018-12-31T08:30:08.771Z,56
2018-12-31T08:30:50.231Z,56
2018-12-31T08:31:31.188Z,56
2018-12-31T08:32:11.361Z,56
2018-12-31T08:32:51.802Z,60
2018-12-31T08:33:32.154Z,68
2018-12-31T08:34:13.245Z,64
2018-12-31T08:34:53.624Z,72
2018-12-31T08:35:34.036Z,72
2018-12-31T08:36:14.423Z,72
2018-12-31T08:36:54.872Z,76
2018-12-31T08:37:38.570Z,76
2018-12-31T08:38:19.037Z,80
2018-12-31T08:38:59.419Z,80
2018-12-31T08:39:39.801Z,84
2018-12-31T08:40:20.195Z,92
2018-12-31T08:41:00.578Z,92
2018-12-31T08:41:41.006Z,92
2018-12-31T08:42:21.383Z,100
2018-12-31T11:14:09.921Z,184
2018-12-31T11:14:50.299Z,172
2018-12-31T11:15:30.829Z,184
2018-12-31T11:16:11.895Z,232
2018-12-31T11:16:52.383Z,248
2018-12-31T11:17:32.714Z,232
2018-12-31T11:18:13.153Z,196
2018-12-31T11:18:56.889Z,196
2018-12-31T11:19:37.412Z,188
2018-12-31T11:20:17.770Z,208
2018-12-31T11:20:58.114Z,216
2018-12-31T11:21:38.500Z,216
2018-12-31T11:22:18.905Z,220
2018-12-31T11:22:59.533Z,212
2018-12-31T11:23:40.658Z,212
2018-12-31T11:24:21.358Z,208
2018-12-31T11:25:01.526Z,192
2018-12-31T11:25:41.903Z,188
2018-12-31T11:26:22.330Z,184
2018-12-31T11:27:02.664Z,172
2018-12-31T11:27:43.231Z,176
2018-12-31T11:28:23.934Z,172
2018-12-31T11:29:04.293Z,176
2018-12-31T11:29:44.741Z,160
2018-12-31T11:30:25.170Z,132
2018-12-31T11:31:06.176Z,116
2018-12-31T11:31:47.331Z,120
2018-12-31T11:32:29.338Z,116
2018-12-31T11:33:09.751Z,116
2018-12-31T11:33:50.108Z,112
2018-12-31T11:34:30.517Z,108
2018-12-31T11:35:10.916Z,112
2018-12-31T11:35:51.333Z,116
2018-12-31T11:36:32.514Z,112
2018-12-31T11:37:16.130Z,108
2018-12-31T11:37:58.271Z,104
2018-12-31T11:38:38.694Z,104
2018-12-31T11:39:19.101Z,112
2018-12-31T11:39:59.803Z,112
2018-12-31T11:40:40.237Z,112
2018-12-31T11:41:20.923Z,120
2018-12-31T11:42:01.262Z,124
2018-12-31T11:42:41.664Z,128
2018-12-31T11:43:23.059Z,132
2018-12-31T11:44:03.496Z,140
2018-12-31T11:44:43.861Z,140
2018-12-31T11:45:24.265Z,132
2018-12-31T11:46:04.781Z,124
2018-12-31T11:46:45.109Z,112
2018-12-31T11:47:27.369Z,108
2018-12-31T11:48:07.742Z,104
2018-12-31T11:48:48.136Z,100
2018-12-31T11:49:28.461Z,100
2018-12-31T11:50:08.862Z,92
2018-12-31T11:50:49.319Z,88
2018-12-31T11:51:29.676Z,92
2018-12-31T11:52:10.032Z,88
2018-12-31T11:52:50.479Z,92
2018-12-31T11:53:30.828Z,92
2018-12-31T11:54:11.206Z,104
2018-12-31T11:54:51.600Z,116
2018-12-31T11:55:31.986Z,120
2018-12-31T11:56:12.377Z,120
2018-12-31T11:56:52.761Z,112
2018-12-31T11:57:33.148Z,112
2018-12-31T11:58:13.527Z,116
2018-12-31T11:58:53.954Z,124
2018-12-31T11:59:34.334Z,116
2018-12-31T12:00:14.734Z,120
2018-12-31T12:00:56.066Z,120
2018-12-31T12:01:36.464Z,116
2018-12-31T12:02:23.300Z,116
2018-12-31T12:02:57.204Z,116
2018-12-31T12:03:37.675Z,128
2018-12-31T12:04:17.985Z,124
2018-12-31T12:04:58.415Z,124
2018-12-31T12:05:38.788Z,128
2018-12-31T12:06:19.221Z,136
2018-12-31T12:06:59.592Z,148
2018-12-31T12:07:42.082Z,152
2018-12-31T12:08:22.822Z,152
2018-12-31T12:09:04.461Z,148
2018-12-31T12:09:44.940Z,152
2018-12-31T12:10:25.306Z,144
2018-12-31T12:11:05.727Z,136
2018-12-31T12:11:47.017Z,128
2018-12-31T12:12:27.394Z,128
2018-12-31T12:13:07.866Z,136
2018-12-31T12:13:50.018Z,132
2018-12-31T12:14:30.372Z,132
2018-12-31T12:15:10.780Z,136
2018-12-31T12:15:51.156Z,132
2018-12-31T12:16:31.614Z,132
2018-12-31T12:17:13.547Z,132
2018-12-31T12:17:53.933Z,128
2018-12-31T12:18:34.362Z,136
2018-12-31T12:19:14.712Z,144
2018-12-31T12:19:55.091Z,144
2018-12-31T12:20:35.540Z,152
2018-12-31T12:21:15.903Z,144
2018-12-31T12:21:56.309Z,140
2018-12-31T12:22:36.717Z,144
2018-12-31T12:23:17.094Z,144
2018-12-31T12:23:57.460Z,136
2018-12-31T12:24:37.886Z,136
2018-12-31T12:25:18.242Z,140
2018-12-31T12:25:58.655Z,148
2018-12-31T12:26:39.118Z,160
2018-12-31T12:27:19.475Z,172
2018-12-31T12:27:59.888Z,184
2018-12-31T12:28:40.291Z,176
2018-12-31T12:29:20.682Z,172
2018-12-31T12:30:01.176Z,180
2018-12-31T12:30:41.572Z,184
2018-12-31T12:31:21.956Z,172
2018-12-31T12:32:02.342Z,176
2018-12-31T12:32:44.483Z,168
2018-12-31T12:33:25.142Z,168
2018-12-31T12:34:05.613Z,172
2018-12-31T12:34:46.015Z,180
2018-12-31T12:35:27.128Z,192
2018-12-31T12:36:07.455Z,224
2018-12-31T12:36:47.820Z,236
2018-12-31T12:37:28.220Z,240
2018-12-31T12:38:08.640Z,232
2018-12-31T12:38:49.057Z,220
2018-12-31T12:39:29.455Z,228
2018-12-31T12:40:09.854Z,236
2018-12-31T12:40:50.311Z,244
2018-12-31T12:41:30.731Z,240
2018-12-31T12:42:11.085Z,232
2018-12-31T12:42:51.503Z,228
2018-12-31T12:43:31.902Z,240
2018-12-31T12:44:12.333Z,248
2018-12-31T12:44:52.753Z,248
2018-12-31T12:45:33.167Z,264
2018-12-31T12:46:13.564Z,280
2018-12-31T12:46:54.017Z,304
2018-12-31T12:47:34.431Z,296
2018-12-31T12:48:14.772Z,332
2018-12-31T12:48:57.030Z,328
2018-12-31T12:49:37.529Z,344
2018-12-31T12:50:18.237Z,320
2018-12-31T12:50:58.661Z,296
2018-12-31T12:51:39.070Z,292
2018-12-31T12:52:19.434Z,324
2018-12-31T12:52:59.875Z,344
2018-12-31T12:53:40.228Z,312
2018-12-31T12:54:21.460Z,288
2018-12-31T12:55:02.182Z,292
2018-12-31T12:55:42.614Z,280
2018-12-31T12:56:23.012Z,292
2018-12-31T12:57:03.415Z,284
2018-12-31T12:57:43.821Z,264
2018-12-31T12:58:24.247Z,256
2018-12-31T12:59:04.680Z,272
2018-12-31T12:59:45.097Z,276
2018-12-31T13:00:25.471Z,260
2018-12-31T13:01:05.994Z,252
2018-12-31T13:01:46.347Z,228
2018-12-31T13:02:26.740Z,224
2018-12-31T13:03:07.159Z,216
2018-12-31T13:03:47.548Z,228
2018-12-31T13:04:27.908Z,216
2018-12-31T13:05:08.292Z,220
2018-12-31T13:05:49.588Z,244
2018-12-31T13:06:29.958Z,256
2018-12-31T13:07:10.367Z,228
2018-12-31T13:07:50.786Z,212
2018-12-31T13:08:31.151Z,244
2018-12-31T13:09:13.518Z,264
2018-12-31T13:09:53.663Z,260
2018-12-31T13:10:34.105Z,264
2018-12-31T13:11:14.480Z,300
2018-12-31T13:11:54.914Z,288
2018-12-31T13:12:35.272Z,244
2018-12-31T13:13:15.680Z,228
2018-12-31T13:13:56.120Z,244
2018-12-31T13:14:36.483Z,256
2018-12-31T13:15:16.915Z,240
2018-12-31T13:15:57.362Z,216
2018-12-31T13:16:37.814Z,212
2018-12-31T13:17:18.203Z,224
2018-12-31T13:17:58.574Z,244
2018-12-31T13:18:39.014Z,228
2018-12-31T13:19:19.352Z,200
2018-12-31T13:19:59.768Z,196
2018-12-31T13:20:40.152Z,188
2018-12-31T13:21:20.497Z,184
2018-12-31T13:22:00.905Z,184
2018-12-31T13:22:41.273Z,184
2018-12-31T13:23:21.664Z,204
2018-12-31T13:24:02.051Z,204
2018-12-31T13:24:42.631Z,196
2018-12-31T13:25:23.006Z,188
2018-12-31T13:26:03.417Z,192
2018-12-31T13:26:43.934Z,204
2018-12-31T13:27:24.300Z,184
2018-12-31T13:28:04.695Z,172
2018-12-31T13:28:45.071Z,164
2018-12-31T13:29:25.446Z,164
2018-12-31T13:30:05.830Z,172
2018-12-31T13:30:46.256Z,172
2018-12-31T13:31:26.673Z,168
2018-12-31T13:32:07.083Z,172
2018-12-31T13:32:47.485Z,184
2018-12-31T13:33:27.901Z,180
2018-12-31T13:34:08.328Z,180
2018-12-31T13:34:48.732Z,184
2018-12-31T13:35:29.104Z,196
2018-12-31T13:36:09.497Z,196
2018-12-31T13:36:49.912Z,196
2018-12-31T13:37:30.294Z,204
2018-12-31T13:38:10.697Z,228
2018-12-31T13:38:51.176Z,240
2018-12-31T13:39:31.570Z,244
2018-12-31T13:40:11.933Z,240
2018-12-31T13:40:52.323Z,244
2018-12-31T13:41:32.725Z,240
2018-12-31T13:42:13.161Z,240
2018-12-31T13:42:53.504Z,260
2018-12-31T13:43:33.910Z,260
2018-12-31T13:44:14.373Z,260
2018-12-31T13:44:54.752Z,248
2018-12-31T13:45:35.120Z,260
2018-12-31T13:46:15.515Z,280
2018-12-31T13:46:55.904Z,268
2018-12-31T13:47:36.330Z,276
2018-12-31T13:48:16.781Z,300
2018-12-31T13:48:57.156Z,300
2018-12-31T13:49:37.567Z,280
2018-12-31T13:50:17.939Z,268
2018-12-31T13:50:58.334Z,248
2018-12-31T13:51:38.761Z,240
2018-12-31T13:52:19.125Z,252
2018-12-31T13:52:59.520Z,244
2018-12-31T13:53:39.931Z,240
2018-12-31T13:54:20.371Z,224
2018-12-31T13:55:00.752Z,192
2018-12-31T13:55:41.168Z,172
2018-12-31T13:56:21.551Z,160
2018-12-31T13:57:01.917Z,152
2018-12-31T13:57:42.341Z,152
2018-12-31T13:58:22.696Z,160
2018-12-31T13:59:04.603Z,156
2018-12-31T13:59:43.530Z,160
2018-12-31T14:00:23.924Z,168
2018-12-31T14:01:04.315Z,176
2018-12-31T14:01:44.713Z,180
2018-12-31T14:02:25.373Z,196
2018-12-31T14:03:06.164Z,212
2018-12-31T14:03:46.597Z,192
2018-12-31T14:16:09.278Z,152
2018-12-31T14:16:49.455Z,148
2018-12-31T14:17:29.879Z,136
2018-12-31T14:18:10.257Z,148
2018-12-31T14:18:50.662Z,156
2018-12-31T14:19:31.041Z,176
2018-12-31T14:20:11.488Z,168
2018-12-31T14:20:51.846Z,168
2018-12-31T14:21:32.240Z,176
2018-12-31T14:22:12.634Z,172
2018-12-31T14:22:53.018Z,168
2018-12-31T14:23:33.482Z,160
2018-12-31T14:24:13.818Z,168
2018-12-31T14:24:54.223Z,180
2018-12-31T14:25:34.608Z,196
2018-12-31T14:26:14.998Z,188
2018-12-31T14:27:00.433Z,180
2018-12-31T14:27:35.798Z,168
2018-12-31T14:28:16.225Z,156
2018-12-31T14:28:56.600Z,156
2018-12-31T14:29:36.990Z,148
2018-12-31T14:30:17.405Z,144
2018-12-31T14:30:57.810Z,140
2018-12-31T14:31:38.183Z,124
2018-12-31T14:32:18.628Z,124
2018-12-31T14:32:59.008Z,128
2018-12-31T14:33:39.415Z,124
2018-12-31T14:34:19.789Z,144
2018-12-31T14:35:00.247Z,136
2018-12-31T14:35:45.673Z,116
2018-12-31T14:36:20.994Z,108
2018-12-31T14:37:01.400Z,108
2018-12-31T14:37:41.780Z,104
2018-12-31T14:38:22.170Z,100
2018-12-31T14:39:02.588Z,96
2018-12-31T14:39:42.967Z,88
2018-12-31T14:40:23.374Z,96
2018-12-31T14:41:03.754Z,108
2018-12-31T14:41:44.160Z,112
2018-12-31T14:42:24.543Z,108
2018-12-31T14:43:05.036Z,104
2018-12-31T14:43:45.338Z,104
2018-12-31T14:44:25.747Z,100
2018-12-31T14:45:06.137Z,108
2018-12-31T14:45:46.641Z,112
2018-12-31T14:46:26.995Z,112
2018-12-31T14:47:07.411Z,116
2018-12-31T14:47:47.803Z,112
2018-12-31T14:48:28.246Z,116
2018-12-31T14:49:08.610Z,120
2018-12-31T14:49:48.966Z,116
2018-12-31T14:50:29.393Z,112
2018-12-31T14:51:09.745Z,112
2018-12-31T14:51:50.187Z,112
2018-12-31T14:52:30.539Z,108
2018-12-31T14:53:10.966Z,116
2018-12-31T14:53:51.326Z,108
2018-12-31T14:54:31.744Z,100
2018-12-31T14:55:12.146Z,92
2018-12-31T14:55:52.549Z,92
2018-12-31T14:56:32.932Z,96
2018-12-31T14:57:13.332Z,100
2018-12-31T14:57:53.752Z,88
2018-12-31T14:58:34.124Z,88
2018-12-31T14:59:14.498Z,92
2018-12-31T14:59:54.978Z,100
2018-12-31T15:00:35.339Z,96
2018-12-31T15:01:15.723Z,96
2018-12-31T15:01:56.123Z,92
2018-12-31T15:02:36.537Z,88
2018-12-31T15:03:16.917Z,84
2018-12-31T15:03:57.323Z,76
2018-12-31T15:04:37.787Z,68
2018-12-31T15:05:18.135Z,68
2018-12-31T15:05:58.546Z,68
2018-12-31T15:06:38.924Z,68
2018-12-31T15:07:19.316Z,68
2018-12-31T15:07:59.723Z,64
2018-12-31T15:08:40.103Z,60
2018-12-31T15:09:20.634Z,56
2018-12-31T15:10:01.058Z,56
2018-12-31T15:10:41.448Z,60
2018-12-31T15:11:21.866Z,52
2018-12-31T15:12:02.223Z,48
2018-12-31T15:12:42.646Z,48
2018-12-31T15:13:23.076Z,44
2018-12-31T15:14:03.426Z,40
2018-12-31T15:14:43.837Z,40
2018-12-31T15:15:24.209Z,40
2018-12-31T15:16:04.620Z,40
2018-12-31T15:16:45.035Z,40
2018-12-31T15:17:25.443Z,36
2018-12-31T15:18:05.886Z,32
2018-12-31T15:18:46.288Z,28
2018-12-31T15:19:26.647Z,28
2018-12-31T15:20:07.084Z,24
2018-12-31T15:20:47.519Z,20
2018-12-31T15:21:27.900Z,20
2018-12-31T15:22:08.255Z,20
2018-12-31T15:22:48.653Z,20
2018-12-31T15:23:29.096Z,24
2018-12-31T15:24:09.446Z,20
2018-12-31T15:24:49.829Z,20
2018-12-31T15:25:30.206Z,16
2018-12-31T15:26:10.623Z,20
2018-12-31T15:26:51.036Z,20
2018-12-31T15:27:31.425Z,16
2018-12-31T15:28:11.801Z,16
2018-12-31T15:28:52.211Z,16
2018-12-31T15:29:32.546Z,16
2018-12-31T15:30:12.937Z,16
2018-12-31T15:30:53.357Z,12
2018-12-31T15:31:33.749Z,16
2018-12-31T15:32:14.144Z,12
2018-12-31T15:32:54.559Z,12
2018-12-31T15:33:34.930Z,8
2018-12-31T15:34:15.370Z,12
2018-12-31T15:34:55.803Z,8
2018-12-31T15:35:36.169Z,8
2018-12-31T15:36:16.531Z,8
2018-12-31T15:36:56.962Z,8
2018-12-31T15:37:37.385Z,8
2018-12-31T15:38:17.755Z,4
2018-12-31T15:38:58.189Z,8
2018-12-31T15:39:38.569Z,8
2018-12-31T15:40:18.959Z,8
2018-12-31T15:40:59.377Z,4
2018-12-31T15:41:39.774Z,4
2018-12-31T15:42:20.155Z,4
2018-12-31T15:43:00.552Z,4
2018-12-31T15:43:40.940Z,4
2018-12-31T15:44:21.366Z,4
2018-12-31T15:45:01.731Z,0
2018-12-31T15:45:42.159Z,4
2018-12-31T15:46:22.557Z,4
2018-12-31T15:47:02.987Z,4
2018-12-31T15:47:44.019Z,4
2018-12-31T15:48:23.745Z,4
2018-12-31T15:49:04.142Z,4
2018-12-31T15:49:44.492Z,0
2018-12-31T15:50:24.912Z,0
2018-12-31T15:51:05.337Z,0
2018-12-31T15:51:45.687Z,0
2018-12-31T15:52:26.064Z,0
2018-12-31T15:53:06.428Z,0
2018-12-31T15:53:46.861Z,0
2018-12-31T15:54:27.230Z,0
2018-12-31T15:55:07.659Z,0
2018-12-31T15:55:48.076Z,0
2018-12-31T15:56:28.468Z,0
2018-12-31T15:57:08.967Z,4
2018-12-31T15:57:49.399Z,0
2018-12-31T15:58:29.855Z,0
2018-12-31T15:59:10.252Z,0
2018-12-31T15:59:50.648Z,0
2018-12-31T16:00:31.056Z,0
2018-12-31T16:01:11.448Z,0
2018-12-31T16:01:51.841Z,0
2018-12-31T16:02:32.224Z,0
2018-12-31T16:03:12.601Z,0
2018-12-31T16:03:53.047Z,0
2018-12-31T16:04:33.386Z,0
2018-12-31T16:05:13.765Z,0
2018-12-31T16:05:54.169Z,0
2018-12-31T16:06:34.582Z,0
2018-12-31T16:07:14.952Z,0
2018-12-31T16:07:55.317Z,0
2018-12-31T16:08:35.789Z,0
2018-12-31T16:09:16.191Z,0
2018-12-31T16:09:56.650Z,0
2018-12-31T16:10:37.003Z,0
2018-12-31T16:11:17.395Z,0
2018-12-31T16:11:57.783Z,0
2018-12-31T16:12:38.277Z,0
2018-12-31T16:13:18.581Z,0
2018-12-31T16:13:58.945Z,0
2018-12-31T16:14:39.347Z,0
2018-12-31T16:15:19.759Z,0
2018-12-31T16:16:00.119Z,0
2018-12-31T16:16:40.544Z,0
2018-12-31T16:17:20.910Z,0
2018-12-31T16:18:01.302Z,0
2018-12-31T16:18:41.677Z,0
2018-12-31T16:19:22.070Z,0
2018-12-31T16:20:02.497Z,0
2018-12-31T16:20:42.878Z,0
2018-12-31T16:21:23.278Z,0
2018-12-31T16:22:03.685Z,0
2018-12-31T16:22:44.059Z,0
2018-12-31T16:23:24.919Z,0
2018-12-31T16:24:04.859Z,0
2018-12-31T16:24:45.235Z,0
2018-12-31T16:25:25.577Z,0
2018-12-31T16:26:05.971Z,0
2018-12-31T16:26:46.413Z,0
2018-12-31T16:27:26.753Z,0
2018-12-31T16:28:07.390Z,0
2018-12-31T16:28:47.550Z,0
2018-12-31T16:29:27.958Z,0
2018-12-31T16:30:08.355Z,0
2018-12-31T16:30:48.731Z,0
2018-12-31T17:19:03.593Z,0
2018-12-31T17:19:43.977Z,0
2018-12-31T17:20:24.380Z,0
2018-12-31T17:21:04.754Z,0
2018-12-31T17:21:45.177Z,0
2018-12-31T17:22:25.557Z,0
2018-12-31T17:23:05.936Z,0
2018-12-31T17:23:46.337Z,0
2018-12-31T17:24:26.691Z,0
2018-12-31T17:25:07.097Z,0
2018-12-31T17:25:47.483Z,0
2018-12-31T17:26:27.976Z,0
2018-12-31T17:27:08.318Z,0
2018-12-31T17:27:48.739Z,0
2018-12-31T17:28:29.117Z,0
2018-12-31T17:29:09.499Z,0
2018-12-31T17:29:49.871Z,0
2018-12-31T17:30:30.286Z,0
2018-12-31T17:31:10.686Z,0
2018-12-31T17:31:51.029Z,0
2018-12-31T17:32:31.441Z,0
2018-12-31T17:33:11.809Z,0
2018-12-31T17:33:52.190Z,0
2018-12-31T17:34:32.614Z,0
2018-12-31T17:35:12.964Z,0
2018-12-31T17:35:53.372Z,0
2018-12-31T17:36:33.783Z,0
2018-12-31T17:37:14.159Z,0
2018-12-31T17:37:54.528Z,0
2018-12-31T17:38:34.946Z,0
2018-12-31T17:39:15.300Z,0
2018-12-31T17:39:55.681Z,0
2018-12-31T17:40:36.059Z,0
2018-12-31T17:41:16.470Z,0
2018-12-31T17:41:56.873Z,0
2018-12-31T17:42:37.295Z,0
2018-12-31T17:43:17.700Z,0
2018-12-31T17:43:58.119Z,0
2018-12-31T17:44:38.535Z,0
2018-12-31T17:45:22.896Z,0
2018-12-31T17:45:59.335Z,0
2018-12-31T17:46:39.739Z,0
2018-12-31T17:47:20.154Z,0
2018-12-31T17:48:00.523Z,0
2018-12-31T17:48:40.907Z,0
2018-12-31T17:49:21.307Z,0
2018-12-31T17:50:01.786Z,0
2018-12-31T17:50:42.106Z,0
2018-12-31T17:51:22.469Z,0
2018-12-31T17:52:02.863Z,0
2018-12-31T17:52:43.285Z,0
2018-12-31T17:53:23.697Z,0
2018-12-31T17:54:04.090Z,0
2018-12-31T17:54:44.476Z,0
2018-12-31T17:55:24.894Z,0
2018-12-31T17:56:05.320Z,0
2018-12-31T17:56:45.679Z,0
2018-12-31T17:57:26.063Z,0
2018-12-31T17:58:06.474Z,0
2018-12-31T17:58:46.896Z,0
2018-12-31T17:59:27.454Z,0
2018-12-31T18:00:08.080Z,0
2018-12-31T18:00:48.490Z,0
2018-12-31T18:01:28.877Z,0
2018-12-31T18:02:09.237Z,0
2018-12-31T18:02:49.663Z,0
2018-12-31T18:03:30.103Z,0
2018-12-31T18:04:10.496Z,0
2018-12-31T19:32:25.051Z,0
2018-12-31T19:33:05.211Z,0
2018-12-31T19:33:45.622Z,0
2018-12-31T19:34:26.011Z,0
2018-12-31T19:35:06.422Z,0
2018-12-31T19:35:46.793Z,0
2018-12-31T19:36:27.201Z,0
2018-12-31T19:37:07.595Z,0
2018-12-31T19:37:48.031Z,0
2018-12-31T19:38:28.459Z,0
2018-12-31T19:39:08.886Z,0
2018-12-31T19:39:49.276Z,0
2018-12-31T19:40:29.674Z,0
2018-12-31T19:41:10.063Z,0
2018-12-31T19:41:50.484Z,0
2018-12-31T19:42:30.870Z,0
2018-12-31T19:43:11.233Z,0
2018-12-31T19:43:51.626Z,0
2018-12-31T19:44:32.041Z,0
2018-12-31T19:45:12.473Z,0
2018-12-31T19:45:52.886Z,0
2018-12-31T19:46:33.245Z,0
2018-12-31T19:47:13.653Z,0
2018-12-31T19:47:55.732Z,0
2018-12-31T19:48:34.489Z,0
2018-12-31T19:49:14.921Z,0
2018-12-31T19:49:55.334Z,0
2018-12-31T19:50:35.730Z,0
2018-12-31T19:51:16.180Z,0
2018-12-31T19:51:56.531Z,0
2018-12-31T19:52:36.927Z,0
2018-12-31T19:53:17.338Z,0
2018-12-31T19:53:57.744Z,0
2018-12-31T19:54:38.132Z,0
2018-12-31T19:55:18.517Z,0
2018-12-31T19:55:58.907Z,0
2018-12-31T19:56:39.326Z,0
2018-12-31T19:57:19.721Z,0
2018-12-31T19:58:00.111Z,0
2018-12-31T19:58:40.505Z,0
2018-12-31T19:59:20.916Z,0
2018-12-31T20:00:01.314Z,0
2018-12-31T20:00:41.739Z,0
2018-12-31T20:01:22.134Z,0
2018-12-31T20:02:02.526Z,0
2018-12-31T20:02:42.943Z,0
2018-12-31T20:03:23.300Z,0
2018-12-31T20:04:03.768Z,0
2018-12-31T20:04:44.107Z,0
2018-12-31T20:05:24.528Z,0
2018-12-31T20:06:04.920Z,0
2018-12-31T20:06:45.317Z,0
2018-12-31T20:07:25.728Z,0
2018-12-31T20:08:06.114Z,0
2018-12-31T20:08:46.567Z,0
2018-12-31T20:09:26.961Z,0
2018-12-31T20:10:07.343Z,0
2018-12-31T20:10:47.698Z,0
2018-12-31T20:11:28.086Z,0
2018-12-31T20:12:09.534Z,0
2018-12-31T20:12:48.892Z,0
2018-12-31T20:13:29.280Z,0
2018-12-31T23:10:06.548Z,0
2018-12-31T23:10:46.830Z,0
2018-12-31T23:11:27.227Z,0
2018-12-31T23:12:07.630Z,0
2018-12-31T23:12:48.117Z,0
2018-12-31T23:13:29.320Z,0
2018-12-31T23:14:09.676Z,0
2018-12-31T23:14:50.088Z,0
2018-12-31T23:15:30.518Z,0
2018-12-31T23:16:10.882Z,0
2018-12-31T23:16:51.286Z,0
2018-12-31T23:17:31.709Z,0
2018-12-31T23:18:12.076Z,0
2018-12-31T23:18:52.496Z,0
2018-12-31T23:19:32.891Z,0
2018-12-31T23:20:13.296Z,0
2018-12-31T23:20:55.319Z,0
2018-12-31T23:21:34.101Z,0
2018-12-31T23:22:14.506Z,0
2018-12-31T23:22:54.901Z,0
2018-12-31T23:23:35.292Z,0
2018-12-31T23:24:15.705Z,0
2018-12-31T23:24:56.089Z,0
2018-12-31T23:25:36.503Z,0
2018-12-31T23:26:16.849Z,0
2018-12-31T23:26:57.239Z,0
2018-12-31T23:27:37.673Z,0
2018-12-31T23:28:18.016Z,0
2018-12-31T23:28:58.421Z,0
2018-12-31T23:29:38.776Z,0
2018-12-31T23:30:19.160Z,0
2018-12-31T23:31:01.441Z,0
2018-12-31T23:31:39.943Z,0
2018-12-31T23:32:20.392Z,0
2018-12-31T23:33:00.750Z,0
2018-12-31T23:33:41.174Z,0
2018-12-31T23:34:21.565Z,0
2018-12-31T23:35:01.955Z,0
2018-12-31T23:35:42.310Z,0
2018-12-31T23:36:22.709Z,0
2018-12-31T23:37:03.078Z,0
2018-12-31T23:37:43.455Z,0
2018-12-31T23:38:24.828Z,0
2018-12-31T23:39:05.536Z,0
2018-12-31T23:39:45.634Z,0
2018-12-31T23:40:26.013Z,0
2018-12-31T23:41:06.393Z,0
2018-12-31T23:41:46.783Z,0
